Emery, Utah
Current Conditions -  °F | °C
As of 10:53 AM on Thursday 27 Nov 2014 (Local Time) from KPUC Reporting Station
Clear Clear  
Wind Chill: 43°   Ceiling: Unl
Heat Index: 43°   Visibility: 10mi
Dew Point: 25°   Wind: 0mph
Humidity: 49%   Direction: NA
Pressure: 30.44"   Gusts: NA
Location:  38.92°N, 111.25°W
Report Text: KPUC 271753Z AUTO 00000KT 10SM CLR 06/M04 A3044 RMK AO2 SLP327 T00611039 10061 21017 58001
Loading
Personal Weather Stations






























Interactive Weather Map New forecast layout! Learn more

10-Day Weather Forecast

Advertisements
Track Severe Weather on mobile